Time;durP1;ratioP1;P1;durP2;ratioP2;P2;SDS_P1;SDS_P2;PMS_P1;PMS_P2;Temp;Humidity;BMP_temperature;BMP_pressure;BME280_temperature;BME280_humidity;BME280_pressure;Samples;Min_cycle;Max_cycle;Signal;HPM_P1;HPM_P2
2023/08/16 00:01:39;;;;;;;8.10;3.47;;;;;;;;;;4967356;28;20206;-70
2023/08/16 00:04:06;;;;;;;4.47;2.90;;;;;;;;;;4967967;28;20218;-71
2023/08/16 00:06:33;;;;;;;4.30;3.30;;;;;;;;;;4966939;28;20668;-71
2023/08/16 00:12:04;;;;;;;3.13;3.00;;;;;;;;;;4959805;28;20249;-71
2023/08/16 00:14:31;;;;;;;9.27;3.53;;;;;;;;;;4948934;29;20230;-71
2023/08/16 00:16:59;;;;;;;3.63;3.42;;;;;;;;;;4955496;28;20242;-71
2023/08/16 00:19:26;;;;;;;7.72;3.90;;;;;;;;;;4967917;28;20218;-71
2023/08/16 00:21:53;;;;;;;4.55;4.15;;;;;;;;;;4967625;28;20559;-71
2023/08/16 00:24:20;;;;;;;5.47;5.07;;;;;;;;;;4967579;28;20302;-71
2023/08/16 00:26:47;;;;;;;15.77;4.60;;;;;;;;;;4967628;28;20289;-70
2023/08/16 00:29:14;;;;;;;7.65;3.92;;;;;;;;;;4967535;28;20253;-71
2023/08/16 00:31:42;;;;;;;4.30;3.63;;;;;;;;;;4967396;28;20218;-71
2023/08/16 00:34:10;;;;;;;4.75;4.20;;;;;;;;;;4967258;28;20321;-70
2023/08/16 00:36:40;;;;;;;3.85;3.47;;;;;;;;;;4967260;28;20459;-70
2023/08/16 00:39:07;;;;;;;4.35;3.85;;;;;;;;;;4967708;28;20225;-70
2023/08/16 00:41:34;;;;;;;4.47;3.65;;;;;;;;;;4967821;28;20210;-70
2023/08/16 00:44:01;;;;;;;6.25;4.30;;;;;;;;;;4967329;28;20210;-70
2023/08/16 00:46:30;;;;;;;9.50;4.63;;;;;;;;;;4967174;28;20207;-71
2023/08/16 00:48:57;;;;;;;6.95;4.15;;;;;;;;;;4967414;28;20211;-71
2023/08/16 00:51:25;;;;;;;7.90;3.97;;;;;;;;;;4967381;28;20665;-70
2023/08/16 00:53:53;;;;;;;6.13;3.80;;;;;;;;;;4967026;28;20703;-70
2023/08/16 00:56:20;;;;;;;5.10;4.22;;;;;;;;;;4967404;28;20225;-70
2023/08/16 00:58:47;;;;;;;5.07;3.47;;;;;;;;;;4965010;28;20245;-70
2023/08/16 01:01:14;;;;;;;7.85;3.33;;;;;;;;;;4964415;28;20206;-70
2023/08/16 01:03:41;;;;;;;5.53;3.35;;;;;;;;;;4964808;28;20217;-70
2023/08/16 01:06:08;;;;;;;4.45;3.75;;;;;;;;;;4965218;28;20225;-70
2023/08/16 01:08:37;;;;;;;8.55;3.63;;;;;;;;;;4966229;28;20214;-70
2023/08/16 01:11:05;;;;;;;3.53;3.33;;;;;;;;;;4963750;28;20210;-70
2023/08/16 01:13:36;;;;;;;3.35;3.08;;;;;;;;;;4967350;28;20284;-70
2023/08/16 01:16:07;;;;;;;4.00;3.28;;;;;;;;;;4967324;28;20242;-71
2023/08/16 01:18:36;;;;;;;3.22;2.97;;;;;;;;;;4966969;28;20234;-70
2023/08/16 01:21:03;;;;;;;4.07;3.72;;;;;;;;;;4966774;28;20217;-71
2023/08/16 01:23:33;;;;;;;8.60;4.43;;;;;;;;;;4958450;28;20219;-70
2023/08/16 01:26:08;;;;;;;7.07;4.57;;;;;;;;;;4966004;28;20628;-70
2023/08/16 01:28:37;;;;;;;10.20;5.07;;;;;;;;;;4966227;28;20225;-70
2023/08/16 01:31:05;;;;;;;10.50;5.78;;;;;;;;;;4967796;28;20250;-70
2023/08/16 01:33:32;;;;;;;8.43;5.63;;;;;;;;;;4964819;28;20329;-70
2023/08/16 01:35:59;;;;;;;6.43;5.10;;;;;;;;;;4966617;28;20238;-70
2023/08/16 01:38:27;;;;;;;10.60;5.35;;;;;;;;;;4965685;28;20222;-70
2023/08/16 01:40:56;;;;;;;8.35;5.30;;;;;;;;;;4966027;28;20505;-70
2023/08/16 01:43:23;;;;;;;12.43;5.55;;;;;;;;;;4964412;28;20669;-70
2023/08/16 01:45:53;;;;;;;10.05;5.72;;;;;;;;;;4966039;28;20217;-70
2023/08/16 01:48:21;;;;;;;5.97;5.43;;;;;;;;;;4966805;28;20587;-70
2023/08/16 01:50:48;;;;;;;13.13;6.10;;;;;;;;;;4966935;28;20221;-70
2023/08/16 01:53:15;;;;;;;14.77;6.18;;;;;;;;;;4966604;28;20214;-70
2023/08/16 01:55:42;;;;;;;10.65;5.88;;;;;;;;;;4964969;28;20346;-70
2023/08/16 01:58:09;;;;;;;6.68;5.47;;;;;;;;;;4957027;28;20234;-70
2023/08/16 02:00:36;;;;;;;7.82;5.60;;;;;;;;;;4956870;28;20210;-70
2023/08/16 02:03:05;;;;;;;12.80;5.63;;;;;;;;;;4954191;28;20594;-70
2023/08/16 02:05:32;;;;;;;5.95;5.20;;;;;;;;;;4956917;28;20213;-70
2023/08/16 02:07:59;;;;;;;6.13;4.88;;;;;;;;;;4955313;28;20210;-70
2023/08/16 02:10:26;;;;;;;11.32;6.82;;;;;;;;;;4954512;28;20702;-70
2023/08/16 02:12:53;;;;;;;12.10;6.07;;;;;;;;;;4959179;28;20206;-70
2023/08/16 02:18:12;;;;;;;9.57;5.60;;;;;;;;;;4957957;28;20237;-70
2023/08/16 02:20:39;;;;;;;8.93;5.40;;;;;;;;;;4958923;28;20292;-70
2023/08/16 02:23:06;;;;;;;8.77;5.40;;;;;;;;;;4958269;28;20211;-70
2023/08/16 02:25:33;;;;;;;6.30;5.10;;;;;;;;;;4961196;28;20412;-70
2023/08/16 02:28:00;;;;;;;8.57;5.18;;;;;;;;;;4958646;28;20229;-70
2023/08/16 02:30:28;;;;;;;11.88;6.55;;;;;;;;;;4959964;28;20235;-70
2023/08/16 02:32:55;;;;;;;9.98;6.18;;;;;;;;;;4958879;28;20261;-70
2023/08/16 02:35:23;;;;;;;10.50;5.53;;;;;;;;;;4959827;28;20253;-70
2023/08/16 02:37:50;;;;;;;12.40;5.72;;;;;;;;;;4959341;28;20216;-70
2023/08/16 02:40:17;;;;;;;9.75;5.63;;;;;;;;;;4960103;28;20206;-70
2023/08/16 02:42:46;;;;;;;10.15;4.95;;;;;;;;;;4959983;28;20207;-70
2023/08/16 02:45:13;;;;;;;5.72;4.88;;;;;;;;;;4958637;28;20214;-70
2023/08/16 02:47:40;;;;;;;9.23;4.57;;;;;;;;;;4959717;28;20202;-70
2023/08/16 02:50:08;;;;;;;5.53;4.93;;;;;;;;;;4959371;28;20265;-70
2023/08/16 02:52:36;;;;;;;5.57;4.72;;;;;;;;;;4957339;28;20715;-70
2023/08/16 02:55:04;;;;;;;5.80;5.15;;;;;;;;;;4960552;28;20214;-71
2023/08/16 02:57:31;;;;;;;4.50;4.10;;;;;;;;;;4960194;28;20207;-70
2023/08/16 02:59:58;;;;;;;5.43;4.80;;;;;;;;;;4957640;28;20313;-70
2023/08/16 03:02:27;;;;;;;4.53;3.90;;;;;;;;;;4959989;28;20230;-70
2023/08/16 03:04:54;;;;;;;4.80;4.40;;;;;;;;;;4958442;28;20688;-70
2023/08/16 03:07:21;;;;;;;7.05;3.92;;;;;;;;;;4959371;28;20199;-70
2023/08/16 03:09:50;;;;;;;4.93;4.50;;;;;;;;;;4960931;28;20642;-70
2023/08/16 03:12:17;;;;;;;4.10;3.80;;;;;;;;;;4957826;28;20211;-69
2023/08/16 03:14:44;;;;;;;5.38;4.32;;;;;;;;;;4959166;28;20206;-70
2023/08/16 03:17:11;;;;;;;5.28;4.32;;;;;;;;;;4960168;28;20206;-70
2023/08/16 03:19:38;;;;;;;7.13;4.22;;;;;;;;;;4958918;28;20314;-70
2023/08/16 03:22:05;;;;;;;5.20;3.90;;;;;;;;;;4958758;28;20214;-71
2023/08/16 03:24:32;;;;;;;5.20;3.97;;;;;;;;;;4957578;28;20207;-70
2023/08/16 03:27:00;;;;;;;4.80;3.55;;;;;;;;;;4958810;28;20702;-70
2023/08/16 03:29:28;;;;;;;5.93;4.15;;;;;;;;;;4957074;28;20242;-70
2023/08/16 03:31:55;;;;;;;4.97;3.38;;;;;;;;;;4958463;28;20214;-70
2023/08/16 03:34:22;;;;;;;6.63;3.78;;;;;;;;;;4957810;28;20632;-70
2023/08/16 03:36:49;;;;;;;5.25;4.78;;;;;;;;;;4959111;28;20672;-70
2023/08/16 03:39:16;;;;;;;5.80;4.50;;;;;;;;;;4957186;28;20230;-70
2023/08/16 03:41:43;;;;;;;5.13;4.65;;;;;;;;;;4958493;28;20261;-70
2023/08/16 03:44:11;;;;;;;7.15;5.18;;;;;;;;;;4957220;28;20712;-70
2023/08/16 03:46:38;;;;;;;11.63;5.38;;;;;;;;;;4959736;28;20824;-70
2023/08/16 03:49:05;;;;;;;8.40;5.25;;;;;;;;;;4959046;28;20203;-70
2023/08/16 03:51:33;;;;;;;7.93;6.40;;;;;;;;;;4957165;28;20207;-70
2023/08/16 03:54:00;;;;;;;10.48;6.13;;;;;;;;;;4959051;28;20211;-70
2023/08/16 03:56:27;;;;;;;7.32;5.75;;;;;;;;;;4957253;28;20206;-70
2023/08/16 03:58:54;;;;;;;9.98;6.25;;;;;;;;;;4960042;28;20230;-70
2023/08/16 04:01:23;;;;;;;15.32;7.03;;;;;;;;;;4960041;28;20695;-70
2023/08/16 04:03:50;;;;;;;13.88;6.90;;;;;;;;;;4957428;28;20628;-70
2023/08/16 04:06:20;;;;;;;10.15;6.97;;;;;;;;;;4958423;28;20708;-70
2023/08/16 04:08:47;;;;;;;12.30;7.47;;;;;;;;;;4958049;28;20656;-69
2023/08/16 04:11:14;;;;;;;13.75;7.88;;;;;;;;;;4959075;28;20205;-69
2023/08/16 04:13:42;;;;;;;15.63;6.97;;;;;;;;;;4957897;28;20313;-70
2023/08/16 04:16:09;;;;;;;16.05;7.18;;;;;;;;;;4960171;28;20258;-70
2023/08/16 04:18:37;;;;;;;11.23;7.70;;;;;;;;;;4957098;28;20232;-69
2023/08/16 04:21:04;;;;;;;20.23;8.80;;;;;;;;;;4955730;28;20222;-70
2023/08/16 04:23:31;;;;;;;13.38;7.93;;;;;;;;;;4956433;28;20216;-70
2023/08/16 04:25:58;;;;;;;22.05;7.45;;;;;;;;;;4958958;28;20225;-70
2023/08/16 04:28:25;;;;;;;31.30;7.85;;;;;;;;;;4956957;28;20233;-70
2023/08/16 04:30:53;;;;;;;18.50;6.72;;;;;;;;;;4958783;28;20234;-70
2023/08/16 04:33:20;;;;;;;22.15;7.82;;;;;;;;;;4957628;28;20212;-70
2023/08/16 04:35:48;;;;;;;35.97;7.07;;;;;;;;;;4956309;28;20210;-71
2023/08/16 04:38:15;;;;;;;11.60;7.63;;;;;;;;;;4957790;28;20202;-71
2023/08/16 04:40:43;;;;;;;12.52;7.60;;;;;;;;;;4957491;28;20233;-70
2023/08/16 04:43:10;;;;;;;8.80;6.88;;;;;;;;;;4967818;28;20531;-69
2023/08/16 04:45:37;;;;;;;13.25;7.57;;;;;;;;;;4968476;28;20214;-70
2023/08/16 04:48:04;;;;;;;15.68;8.00;;;;;;;;;;4967815;28;20203;-70
2023/08/16 04:50:31;;;;;;;10.32;7.35;;;;;;;;;;4967721;28;20241;-70
2023/08/16 04:52:59;;;;;;;11.02;7.75;;;;;;;;;;4951138;28;20345;-70
2023/08/16 04:55:26;;;;;;;16.02;8.75;;;;;;;;;;4968129;28;20218;-70
2023/08/16 04:57:53;;;;;;;15.40;8.68;;;;;;;;;;4967964;28;20210;-69
2023/08/16 05:00:21;;;;;;;15.02;8.18;;;;;;;;;;4967310;28;20230;-70
2023/08/16 05:02:48;;;;;;;15.90;8.43;;;;;;;;;;4967840;28;20214;-70
2023/08/16 05:05:15;;;;;;;16.02;8.63;;;;;;;;;;4967937;28;20261;-70
2023/08/16 05:07:42;;;;;;;14.77;8.50;;;;;;;;;;4967531;28;20210;-70
2023/08/16 05:10:11;;;;;;;14.82;8.55;;;;;;;;;;4966318;28;20261;-70
2023/08/16 05:12:38;;;;;;;16.30;8.98;;;;;;;;;;4966068;28;20210;-70
2023/08/16 05:15:05;;;;;;;17.45;9.27;;;;;;;;;;4965813;28;20210;-69
2023/08/16 05:17:32;;;;;;;15.07;8.20;;;;;;;;;;4967547;28;20929;-69
2023/08/16 05:19:59;;;;;;;27.75;8.05;;;;;;;;;;4963534;28;20241;-69
2023/08/16 05:22:26;;;;;;;20.65;8.32;;;;;;;;;;4967707;28;20252;-70
2023/08/16 05:24:53;;;;;;;24.52;9.70;;;;;;;;;;4967706;28;20317;-70
2023/08/16 05:27:22;;;;;;;20.33;9.02;;;;;;;;;;4967796;28;20232;-69
2023/08/16 05:29:49;;;;;;;24.85;10.30;;;;;;;;;;4967571;28;20659;-69
2023/08/16 05:32:16;;;;;;;21.38;9.80;;;;;;;;;;4967727;28;20214;-69
2023/08/16 05:34:43;;;;;;;23.88;11.05;;;;;;;;;;4967998;28;20221;-69
2023/08/16 05:37:10;;;;;;;27.35;11.35;;;;;;;;;;4957221;28;20214;-70
2023/08/16 05:39:37;;;;;;;26.65;11.13;;;;;;;;;;4948433;29;20235;-69
2023/08/16 05:42:05;;;;;;;26.38;11.70;;;;;;;;;;4948562;29;20206;-69
2023/08/16 05:44:33;;;;;;;27.27;12.02;;;;;;;;;;4948436;29;20564;-70
2023/08/16 05:47:00;;;;;;;32.15;12.07;;;;;;;;;;4965214;28;20218;-69
2023/08/16 05:49:28;;;;;;;37.45;13.13;;;;;;;;;;4971159;28;20206;-69
2023/08/16 05:51:55;;;;;;;33.58;12.32;;;;;;;;;;4971168;28;20203;-70
2023/08/16 05:54:22;;;;;;;34.80;13.05;;;;;;;;;;4970768;28;20218;-69
2023/08/16 05:56:49;;;;;;;34.15;13.50;;;;;;;;;;4970365;28;20214;-69
2023/08/16 05:59:16;;;;;;;39.70;14.10;;;;;;;;;;4970050;28;20230;-64
2023/08/16 06:01:45;;;;;;;45.67;13.68;;;;;;;;;;4969625;28;20217;-65
2023/08/16 06:04:12;;;;;;;47.88;15.13;;;;;;;;;;4970495;28;20206;-65
2023/08/16 06:06:39;;;;;;;42.13;14.68;;;;;;;;;;4968737;28;20217;-65
2023/08/16 06:09:06;;;;;;;45.83;14.50;;;;;;;;;;4970276;28;20203;-64
2023/08/16 06:11:33;;;;;;;46.03;14.45;;;;;;;;;;4969833;28;20247;-63
2023/08/16 06:14:00;;;;;;;46.10;14.98;;;;;;;;;;4970412;28;20210;-65
2023/08/16 06:16:28;;;;;;;38.85;13.07;;;;;;;;;;4970304;28;20211;-64
2023/08/16 06:18:56;;;;;;;49.03;14.73;;;;;;;;;;4970097;28;20234;-64
2023/08/16 06:21:23;;;;;;;35.80;13.43;;;;;;;;;;4970134;28;20565;-64
2023/08/16 06:23:51;;;;;;;49.80;14.68;;;;;;;;;;4969258;28;20234;-64
2023/08/16 06:26:18;;;;;;;44.03;14.90;;;;;;;;;;4969783;28;20214;-64
2023/08/16 06:28:46;;;;;;;47.88;14.07;;;;;;;;;;4969859;28;20233;-64
2023/08/16 06:31:13;;;;;;;39.97;14.00;;;;;;;;;;4969477;28;20245;-64
2023/08/16 06:33:40;;;;;;;42.05;15.50;;;;;;;;;;4969363;28;20348;-64
2023/08/16 06:36:09;;;;;;;42.78;14.95;;;;;;;;;;4969729;28;20312;-65
2023/08/16 06:38:36;;;;;;;37.35;15.27;;;;;;;;;;4970334;28;20233;-64
2023/08/16 06:41:03;;;;;;;44.65;16.83;;;;;;;;;;4970448;28;20230;-65
2023/08/16 06:43:30;;;;;;;38.97;16.45;;;;;;;;;;4970261;28;20574;-65
2023/08/16 06:45:58;;;;;;;43.10;16.52;;;;;;;;;;4970238;28;20276;-65
2023/08/16 06:48:25;;;;;;;40.58;15.27;;;;;;;;;;4969829;28;20202;-65
2023/08/16 06:50:52;;;;;;;41.75;14.90;;;;;;;;;;4970387;28;20609;-65
2023/08/16 06:53:20;;;;;;;43.10;16.60;;;;;;;;;;4969669;28;20254;-65
2023/08/16 06:55:47;;;;;;;36.90;13.80;;;;;;;;;;4970082;28;20220;-65
2023/08/16 06:58:14;;;;;;;31.48;13.57;;;;;;;;;;4969299;28;20215;-65
2023/08/16 07:00:45;;;;;;;31.90;13.48;;;;;;;;;;4966720;28;20222;-65
2023/08/16 07:03:12;;;;;;;34.83;14.90;;;;;;;;;;4969763;28;20668;-64
2023/08/16 07:05:39;;;;;;;33.42;15.30;;;;;;;;;;4964745;28;20207;-65
2023/08/16 07:08:06;;;;;;;34.95;14.13;;;;;;;;;;4950675;29;20758;-65
2023/08/16 07:10:35;;;;;;;30.25;13.93;;;;;;;;;;4962668;28;20206;-65
2023/08/16 07:13:02;;;;;;;28.63;13.50;;;;;;;;;;4970162;28;20219;-66
2023/08/16 07:15:29;;;;;;;41.72;15.43;;;;;;;;;;4969961;28;20217;-66
2023/08/16 07:17:56;;;;;;;35.83;14.80;;;;;;;;;;4969809;28;20218;-65
2023/08/16 07:20:23;;;;;;;29.70;14.10;;;;;;;;;;4969869;28;20237;-65
2023/08/16 07:22:50;;;;;;;30.42;14.23;;;;;;;;;;4954981;28;20614;-66
2023/08/16 07:25:18;;;;;;;29.50;15.40;;;;;;;;;;4963188;28;20680;-65
2023/08/16 07:27:46;;;;;;;29.67;14.02;;;;;;;;;;4969595;28;20297;-64
2023/08/16 07:30:13;;;;;;;30.42;13.90;;;;;;;;;;4969261;28;20734;-63
2023/08/16 07:32:40;;;;;;;31.67;13.50;;;;;;;;;;4969399;28;20716;-64
2023/08/16 07:35:08;;;;;;;31.20;14.25;;;;;;;;;;4969271;28;20211;-64
2023/08/16 07:37:35;;;;;;;30.63;14.02;;;;;;;;;;4968938;28;20293;-65
2023/08/16 07:40:03;;;;;;;30.95;13.85;;;;;;;;;;4969088;28;20673;-65
2023/08/16 07:42:30;;;;;;;24.80;13.13;;;;;;;;;;4969079;28;20202;-65
2023/08/16 07:44:59;;;;;;;28.10;13.52;;;;;;;;;;4968909;28;20202;-65
2023/08/16 07:47:27;;;;;;;27.30;12.95;;;;;;;;;;4969024;28;20214;-65
2023/08/16 07:49:55;;;;;;;28.02;14.02;;;;;;;;;;4969309;28;20298;-65
2023/08/16 07:52:22;;;;;;;30.17;13.30;;;;;;;;;;4968915;28;20241;-65
2023/08/16 07:54:49;;;;;;;33.90;14.10;;;;;;;;;;4968656;28;20915;-65
2023/08/16 07:57:16;;;;;;;27.98;14.07;;;;;;;;;;4967641;28;20233;-65
2023/08/16 07:59:43;;;;;;;24.45;11.88;;;;;;;;;;4968540;28;20253;-65
2023/08/16 08:02:12;;;;;;;29.67;13.43;;;;;;;;;;4968113;28;20677;-65
2023/08/16 08:04:39;;;;;;;23.65;12.23;;;;;;;;;;4968513;28;20217;-65
2023/08/16 08:07:06;;;;;;;24.17;12.55;;;;;;;;;;4968156;28;20559;-65
2023/08/16 08:09:33;;;;;;;27.10;12.50;;;;;;;;;;4966805;28;20203;-65
2023/08/16 08:12:01;;;;;;;23.85;12.40;;;;;;;;;;4966799;28;20566;-65
2023/08/16 08:14:28;;;;;;;22.92;12.45;;;;;;;;;;4955630;28;20233;-65
2023/08/16 08:16:55;;;;;;;20.90;11.88;;;;;;;;;;4949356;28;20954;-65
2023/08/16 08:19:23;;;;;;;22.00;11.40;;;;;;;;;;4968523;28;20215;-64
2023/08/16 08:21:51;;;;;;;19.42;10.82;;;;;;;;;;4968404;28;20250;-64
2023/08/16 08:24:18;;;;;;;20.85;11.23;;;;;;;;;;4967680;28;20210;-64
2023/08/16 08:26:45;;;;;;;20.50;11.20;;;;;;;;;;4968053;28;20213;-65
2023/08/16 08:29:12;;;;;;;62.30;15.48;;;;;;;;;;4965488;28;20940;-64
2023/08/16 08:31:39;;;;;;;69.22;16.20;;;;;;;;;;4947120;28;20242;-65
2023/08/16 08:34:06;;;;;;;47.05;14.05;;;;;;;;;;4948708;29;20673;-65
2023/08/16 08:36:34;;;;;;;28.48;13.23;;;;;;;;;;4948686;29;20214;-65
2023/08/16 08:39:02;;;;;;;29.08;12.35;;;;;;;;;;4948892;29;20211;-65
2023/08/16 08:41:29;;;;;;;24.75;12.77;;;;;;;;;;4960105;28;20233;-65
2023/08/16 08:43:56;;;;;;;18.77;11.32;;;;;;;;;;4968231;28;20210;-64
2023/08/16 08:46:23;;;;;;;19.90;11.18;;;;;;;;;;4968066;28;20611;-64
2023/08/16 08:48:51;;;;;;;20.42;11.48;;;;;;;;;;4968200;28;20265;-64
2023/08/16 08:51:18;;;;;;;18.05;10.60;;;;;;;;;;4968079;28;20218;-78
2023/08/16 08:53:46;;;;;;;16.85;10.00;;;;;;;;;;4968216;28;20230;-65
2023/08/16 08:56:15;;;;;;;20.50;10.82;;;;;;;;;;4953854;28;20227;-64
2023/08/16 08:58:44;;;;;;;16.92;10.00;;;;;;;;;;4964140;28;20207;-64
2023/08/16 09:01:13;;;;;;;16.85;9.88;;;;;;;;;;4965146;28;20475;-64
2023/08/16 09:03:41;;;;;;;12.35;8.40;;;;;;;;;;4965668;28;20218;-65
2023/08/16 09:06:09;;;;;;;16.48;8.98;;;;;;;;;;4967328;28;20222;-64
2023/08/16 09:08:37;;;;;;;18.35;10.48;;;;;;;;;;4965855;28;20586;-64
2023/08/16 09:11:06;;;;;;;13.50;10.07;;;;;;;;;;4970858;28;20315;-64
2023/08/16 09:13:33;;;;;;;12.45;9.45;;;;;;;;;;4967381;28;20218;-65
2023/08/16 09:16:01;;;;;;;11.90;8.93;;;;;;;;;;4963253;28;20642;-64
2023/08/16 09:18:28;;;;;;;12.93;8.82;;;;;;;;;;4962498;28;20259;-64
2023/08/16 09:20:59;;;;;;;13.80;8.68;;;;;;;;;;4948129;28;20238;-64
2023/08/16 09:23:26;;;;;;;13.63;8.88;;;;;;;;;;4948554;29;20214;-64
2023/08/16 09:25:53;;;;;;;10.02;7.70;;;;;;;;;;4948553;29;20215;-64
2023/08/16 09:28:22;;;;;;;15.00;7.60;;;;;;;;;;4947938;29;20760;-64
2023/08/16 09:30:49;;;;;;;11.60;6.72;;;;;;;;;;4948065;29;20254;-64
2023/08/16 09:33:16;;;;;;;7.45;6.43;;;;;;;;;;4948614;29;20211;-64
2023/08/16 09:35:45;;;;;;;6.80;6.03;;;;;;;;;;4955810;28;20214;-63
2023/08/16 09:38:14;;;;;;;7.78;5.35;;;;;;;;;;4972931;28;20213;-65
2023/08/16 09:40:48;;;;;;;6.10;5.47;;;;;;;;;;4966942;28;20467;-64
2023/08/16 09:43:15;;;;;;;5.63;5.15;;;;;;;;;;4966048;28;20309;-64
2023/08/16 09:45:44;;;;;;;5.63;5.10;;;;;;;;;;4962894;28;20215;-65
2023/08/16 09:48:11;;;;;;;5.75;5.25;;;;;;;;;;4948368;28;20297;-64
2023/08/16 09:50:38;;;;;;;5.85;4.97;;;;;;;;;;4948188;29;20629;-64
2023/08/16 09:53:05;;;;;;;4.50;4.20;;;;;;;;;;4948084;29;20685;-64
2023/08/16 09:55:33;;;;;;;5.47;4.82;;;;;;;;;;4947335;29;20219;-64
2023/08/16 09:58:01;;;;;;;5.55;4.93;;;;;;;;;;4961904;28;20309;-64
2023/08/16 10:00:28;;;;;;;5.85;4.93;;;;;;;;;;4966328;28;20238;-64
2023/08/16 10:02:58;;;;;;;10.63;4.45;;;;;;;;;;4966354;28;20218;-66
2023/08/16 10:05:26;;;;;;;6.95;4.55;;;;;;;;;;4964024;28;20214;-65
2023/08/16 10:07:54;;;;;;;4.40;4.10;;;;;;;;;;4964026;28;20700;-65
2023/08/16 10:10:21;;;;;;;4.47;4.13;;;;;;;;;;4965073;28;20210;-64
2023/08/16 10:12:48;;;;;;;4.78;4.47;;;;;;;;;;4965513;28;20697;-65
2023/08/16 10:15:15;;;;;;;5.40;4.95;;;;;;;;;;4965451;28;20198;-65
2023/08/16 10:17:43;;;;;;;4.72;4.32;;;;;;;;;;4966032;28;20218;-65
2023/08/16 10:20:15;;;;;;;5.97;4.68;;;;;;;;;;4965915;28;20701;-65
2023/08/16 10:22:44;;;;;;;4.88;4.57;;;;;;;;;;4966170;28;20245;-65
2023/08/16 10:25:16;;;;;;;7.25;4.82;;;;;;;;;;4965736;28;20206;-64
2023/08/16 10:27:44;;;;;;;4.85;4.40;;;;;;;;;;4958354;28;20519;-64
2023/08/16 10:30:14;;;;;;;5.43;4.93;;;;;;;;;;4946565;28;20238;-64
2023/08/16 10:32:42;;;;;;;8.02;5.18;;;;;;;;;;4961388;28;20297;-64
2023/08/16 10:35:10;;;;;;;5.57;5.07;;;;;;;;;;4969335;28;20638;-65
2023/08/16 10:37:39;;;;;;;5.25;4.82;;;;;;;;;;4969212;28;20206;-64
2023/08/16 10:40:16;;;;;;;5.15;4.68;;;;;;;;;;4969316;28;20218;-65
2023/08/16 10:42:49;;;;;;;5.35;4.93;;;;;;;;;;4965887;28;20221;-64
2023/08/16 10:45:22;;;;;;;5.43;4.93;;;;;;;;;;4964178;28;20325;-65
2023/08/16 10:47:49;;;;;;;6.13;4.60;;;;;;;;;;4949382;29;20226;-64
2023/08/16 10:50:16;;;;;;;5.75;4.95;;;;;;;;;;4952227;28;20592;-66
2023/08/16 10:52:45;;;;;;;5.47;4.97;;;;;;;;;;4963902;28;20213;-74
2023/08/16 10:55:12;;;;;;;4.32;4.05;;;;;;;;;;4964049;28;20221;-68
2023/08/16 10:57:39;;;;;;;4.82;4.50;;;;;;;;;;4968111;28;20319;-68
2023/08/16 11:00:08;;;;;;;5.15;4.75;;;;;;;;;;4968458;28;20765;-68
2023/08/16 11:02:37;;;;;;;4.72;4.22;;;;;;;;;;4968431;28;20206;-68
2023/08/16 11:05:04;;;;;;;6.15;4.72;;;;;;;;;;4967812;28;20214;-68
2023/08/16 11:07:31;;;;;;;7.20;4.38;;;;;;;;;;4950983;28;20207;-68
2023/08/16 11:10:01;;;;;;;4.38;3.97;;;;;;;;;;4954370;28;20206;-68
2023/08/16 11:12:31;;;;;;;4.80;4.38;;;;;;;;;;4965534;28;20210;-68
2023/08/16 11:14:58;;;;;;;4.00;3.80;;;;;;;;;;4949139;29;20317;-68
2023/08/16 11:17:27;;;;;;;5.90;4.60;;;;;;;;;;4964512;28;20229;-68
2023/08/16 11:19:54;;;;;;;4.47;4.20;;;;;;;;;;4968315;28;20261;-69
2023/08/16 11:22:22;;;;;;;4.22;3.92;;;;;;;;;;4968168;28;20321;-69
2023/08/16 11:24:49;;;;;;;5.20;4.22;;;;;;;;;;4968317;28;20214;-68
2023/08/16 11:27:22;;;;;;;4.85;4.40;;;;;;;;;;4967600;28;20210;-68
2023/08/16 11:29:50;;;;;;;4.05;3.85;;;;;;;;;;4968019;28;20235;-68
2023/08/16 11:32:17;;;;;;;4.57;4.20;;;;;;;;;;4968172;28;20294;-68
2023/08/16 11:34:44;;;;;;;5.05;4.50;;;;;;;;;;4967638;28;20214;-69
2023/08/16 11:37:19;;;;;;;4.60;4.20;;;;;;;;;;4968200;28;20237;-69
2023/08/16 11:39:46;;;;;;;4.30;3.88;;;;;;;;;;4967778;28;20672;-68
2023/08/16 11:42:13;;;;;;;4.18;3.70;;;;;;;;;;4967667;28;20245;-68
2023/08/16 11:44:41;;;;;;;5.20;3.75;;;;;;;;;;4967991;28;20222;-69
2023/08/16 11:47:12;;;;;;;4.72;4.28;;;;;;;;;;4967813;28;20594;-70
2023/08/16 11:49:39;;;;;;;3.80;3.60;;;;;;;;;;4967750;28;20210;-69
2023/08/16 11:52:06;;;;;;;4.05;3.85;;;;;;;;;;4967943;28;20206;-69
2023/08/16 11:54:33;;;;;;;4.65;3.90;;;;;;;;;;4960659;28;20210;-70
2023/08/16 11:57:00;;;;;;;4.25;4.05;;;;;;;;;;4961474;28;20280;-64
2023/08/16 11:59:28;;;;;;;4.40;4.07;;;;;;;;;;4962955;28;20237;-63
2023/08/16 12:01:57;;;;;;;4.38;3.92;;;;;;;;;;4964858;28;20230;-62
2023/08/16 12:04:24;;;;;;;4.30;4.00;;;;;;;;;;4968073;28;20720;-62
2023/08/16 12:06:51;;;;;;;4.53;4.13;;;;;;;;;;4963905;28;20562;-64
2023/08/16 12:09:18;;;;;;;5.13;3.70;;;;;;;;;;4957768;28;20218;-64
2023/08/16 12:11:51;;;;;;;3.75;3.55;;;;;;;;;;4966491;28;20210;-64
2023/08/16 12:14:18;;;;;;;3.88;3.75;;;;;;;;;;4953047;28;20230;-62
2023/08/16 12:16:45;;;;;;;4.05;3.85;;;;;;;;;;4947619;29;20769;-63
2023/08/16 12:19:18;;;;;;;4.40;4.05;;;;;;;;;;4953398;28;20608;-62
2023/08/16 12:21:45;;;;;;;4.25;4.05;;;;;;;;;;4967769;28;20234;-62
2023/08/16 12:24:12;;;;;;;3.58;3.35;;;;;;;;;;4968158;28;20305;-63
2023/08/16 12:26:39;;;;;;;4.13;3.58;;;;;;;;;;4968435;28;20222;-62
2023/08/16 12:29:06;;;;;;;3.75;3.55;;;;;;;;;;4967776;28;20241;-63
2023/08/16 12:31:33;;;;;;;6.68;3.60;;;;;;;;;;4968380;28;20214;-63
2023/08/16 12:34:00;;;;;;;4.57;3.35;;;;;;;;;;4967622;28;20210;-63
2023/08/16 12:36:29;;;;;;;3.78;3.58;;;;;;;;;;4962499;28;20690;-63
2023/08/16 12:38:56;;;;;;;3.92;3.72;;;;;;;;;;4948903;29;20222;-69
2023/08/16 12:41:23;;;;;;;4.65;3.85;;;;;;;;;;4966981;28;20238;-63
2023/08/16 12:43:50;;;;;;;5.03;3.97;;;;;;;;;;4967077;28;20209;-68
2023/08/16 12:46:17;;;;;;;4.25;4.05;;;;;;;;;;4967612;28;20269;-64
2023/08/16 12:48:45;;;;;;;3.72;3.60;;;;;;;;;;4965990;28;20214;-64
2023/08/16 12:51:12;;;;;;;4.60;4.10;;;;;;;;;;4966355;28;20306;-64
2023/08/16 12:53:41;;;;;;;4.22;4.00;;;;;;;;;;4958963;28;20244;-64
2023/08/16 12:56:08;;;;;;;3.88;3.67;;;;;;;;;;4965592;28;20336;-64
2023/08/16 12:58:35;;;;;;;4.18;3.92;;;;;;;;;;4967861;28;20478;-63
2023/08/16 13:01:02;;;;;;;4.75;3.92;;;;;;;;;;4965472;28;20265;-64
2023/08/16 13:03:33;;;;;;;5.10;3.60;;;;;;;;;;4967665;28;20234;-64
2023/08/16 13:06:00;;;;;;;3.45;3.35;;;;;;;;;;4967648;28;20210;-64
2023/08/16 13:08:28;;;;;;;3.85;3.65;;;;;;;;;;4967430;28;20217;-64
2023/08/16 13:10:56;;;;;;;3.47;3.28;;;;;;;;;;4967766;28;20238;-64
2023/08/16 13:13:23;;;;;;;3.90;3.70;;;;;;;;;;4967330;28;20222;-64
2023/08/16 13:15:51;;;;;;;4.03;3.85;;;;;;;;;;4967395;28;20562;-64
2023/08/16 13:18:18;;;;;;;3.45;3.35;;;;;;;;;;4967379;28;20590;-64
2023/08/16 13:20:45;;;;;;;4.90;3.45;;;;;;;;;;4967541;28;20217;-64
2023/08/16 13:23:12;;;;;;;3.55;3.30;;;;;;;;;;4967652;28;20214;-64
2023/08/16 13:25:39;;;;;;;3.58;3.28;;;;;;;;;;4967341;28;20217;-64
2023/08/16 13:28:08;;;;;;;4.40;3.30;;;;;;;;;;4967363;28;20238;-64
2023/08/16 13:30:38;;;;;;;4.97;3.55;;;;;;;;;;4967040;28;20574;-64
2023/08/16 13:33:07;;;;;;;3.88;3.58;;;;;;;;;;4967455;28;20214;-64
2023/08/16 13:35:34;;;;;;;3.65;3.35;;;;;;;;;;4967310;28;20234;-63
2023/08/16 13:38:01;;;;;;;3.40;3.20;;;;;;;;;;4967285;28;20225;-64
2023/08/16 13:40:28;;;;;;;3.78;3.58;;;;;;;;;;4967269;28;20213;-64
2023/08/16 13:42:56;;;;;;;3.22;3.13;;;;;;;;;;4966968;28;20309;-64
2023/08/16 13:45:24;;;;;;;3.55;3.45;;;;;;;;;;4967192;28;20225;-64
2023/08/16 13:47:51;;;;;;;4.20;3.78;;;;;;;;;;4967076;28;20222;-64
2023/08/16 13:50:18;;;;;;;3.35;3.15;;;;;;;;;;4966994;28;20206;-64
2023/08/16 13:52:46;;;;;;;3.47;3.38;;;;;;;;;;4967276;28;20226;-63
2023/08/16 13:55:14;;;;;;;3.03;2.92;;;;;;;;;;4966455;28;20233;-64
2023/08/16 13:57:43;;;;;;;3.72;3.50;;;;;;;;;;4966409;28;20211;-63
2023/08/16 14:00:12;;;;;;;3.65;3.45;;;;;;;;;;4966475;28;20214;-64
2023/08/16 14:02:41;;;;;;;3.40;3.30;;;;;;;;;;4966133;28;20708;-63
2023/08/16 14:05:08;;;;;;;4.53;3.42;;;;;;;;;;4966311;28;20217;-63
2023/08/16 14:07:41;;;;;;;7.95;3.72;;;;;;;;;;4966070;28;20281;-64
2023/08/16 14:10:08;;;;;;;3.42;3.22;;;;;;;;;;4970176;28;20735;-64
2023/08/16 14:12:36;;;;;;;4.28;3.67;;;;;;;;;;4969904;28;20214;-64
2023/08/16 14:15:03;;;;;;;3.75;3.47;;;;;;;;;;4969719;28;20214;-64
2023/08/16 14:17:30;;;;;;;3.55;3.22;;;;;;;;;;4970076;28;20638;-64
2023/08/16 14:19:59;;;;;;;3.47;3.30;;;;;;;;;;4970072;28;20218;-64
2023/08/16 14:22:26;;;;;;;3.65;3.55;;;;;;;;;;4969925;28;20239;-64
2023/08/16 14:24:53;;;;;;;3.25;3.15;;;;;;;;;;4969885;28;20219;-64
2023/08/16 14:27:20;;;;;;;3.42;3.22;;;;;;;;;;4969518;28;20712;-64
2023/08/16 14:29:47;;;;;;;3.20;3.10;;;;;;;;;;4969570;28;20257;-64
2023/08/16 14:32:15;;;;;;;3.55;3.38;;;;;;;;;;4969232;28;20284;-64
2023/08/16 14:34:42;;;;;;;3.45;3.35;;;;;;;;;;4968997;28;20222;-64
2023/08/16 14:37:11;;;;;;;4.88;3.20;;;;;;;;;;4968948;28;20210;-64
2023/08/16 14:39:38;;;;;;;4.43;2.83;;;;;;;;;;4969158;28;20217;-64
2023/08/16 14:42:05;;;;;;;3.22;3.13;;;;;;;;;;4969645;28;20230;-64